Time;durP1;ratioP1;P1;durP2;ratioP2;P2;SDS_P1;SDS_P2;PMS_P1;PMS_P2;Temp;Humidity;BMP_temperature;BMP_pressure;BME280_temperature;BME280_humidity;BME280_pressure;Samples;Min_cycle;Max_cycle;Signal;HPM_P1;HPM_P2
2021/08/29 00:01:49;;;;;;;10.75;5.70;;;;;;;16.12;68.74;101636.03;4993982;28;20580;-84
2021/08/29 00:04:14;;;;;;;21.73;10.02;;;;;;;16.09;68.67;101637.06;4993983;28;20046;-84
2021/08/29 00:06:39;;;;;;;24.42;11.20;;;;;;;16.02;68.45;101634.03;4993955;28;20022;-84
2021/08/29 00:09:05;;;;;;;24.30;10.60;;;;;;;16.01;69.01;101634.13;4993686;28;20026;-87
2021/08/29 00:11:31;;;;;;;18.17;7.80;;;;;;;15.97;69.14;101632.66;4993817;28;20037;-86
2021/08/29 00:13:57;;;;;;;14.02;6.30;;;;;;;15.99;69.27;101639.53;4993820;28;20029;-86
2021/08/29 00:16:22;;;;;;;13.27;5.63;;;;;;;15.96;69.66;101642.41;4993887;28;20384;-85
2021/08/29 00:18:47;;;;;;;8.02;3.90;;;;;;;15.94;69.17;101643.50;4993351;28;20022;-84
2021/08/29 00:21:13;;;;;;;6.13;3.40;;;;;;;15.86;69.12;101641.38;4993629;28;20092;-85
2021/08/29 00:23:38;;;;;;;4.93;2.72;;;;;;;15.82;69.26;101646.03;4993924;28;20465;-85
2021/08/29 00:26:03;;;;;;;5.00;2.65;;;;;;;15.85;68.96;101648.47;4993493;28;20061;-85
2021/08/29 00:28:29;;;;;;;3.95;2.58;;;;;;;15.90;69.47;101644.66;4993429;28;20081;-85
2021/08/29 00:30:54;;;;;;;5.07;2.65;;;;;;;15.94;69.65;101640.84;4993263;28;20034;-85
2021/08/29 00:33:20;;;;;;;4.75;3.20;;;;;;;15.91;70.08;101643.69;4993272;28;20081;-85
2021/08/29 00:35:45;;;;;;;4.30;2.60;;;;;;;15.85;70.49;101645.81;4993460;28;20027;-85
2021/08/29 00:38:10;;;;;;;3.50;2.50;;;;;;;15.86;70.00;101646.69;4993539;28;20026;-84
2021/08/29 00:40:36;;;;;;;5.32;2.88;;;;;;;15.88;69.94;101641.25;4993117;28;20412;-84
2021/08/29 00:43:02;;;;;;;4.35;2.55;;;;;;;15.86;69.81;101644.88;4993390;28;20060;-86
2021/08/29 00:45:27;;;;;;;7.22;2.75;;;;;;;15.81;69.75;101646.97;4992659;28;20038;-84
2021/08/29 00:47:53;;;;;;;10.80;3.45;;;;;;;15.79;69.62;101646.25;4992801;28;20121;-86
2021/08/29 00:50:18;;;;;;;6.13;2.65;;;;;;;15.75;69.62;101641.28;4992920;28;20073;-84
2021/08/29 00:52:44;;;;;;;5.22;3.08;;;;;;;15.70;70.26;101649.53;4993289;28;20074;-85
2021/08/29 00:55:11;;;;;;;4.80;2.95;;;;;;;15.69;70.44;101645.16;4992897;28;20058;-85
2021/08/29 00:57:41;;;;;;;6.20;2.95;;;;;;;15.69;70.51;101636.38;4992959;28;20029;-84
2021/08/29 01:00:09;;;;;;;5.95;3.72;;;;;;;15.66;70.75;101637.47;4993130;28;20034;-84
2021/08/29 01:02:34;;;;;;;5.80;3.63;;;;;;;15.65;70.40;101641.88;4992985;28;20054;-85
2021/08/29 01:05:18;;;;;;;6.70;3.25;;;;;;;15.82;70.07;101635.44;4992905;28;20512;-85
2021/08/29 01:07:52;;;;;;;4.95;3.00;;;;;;;15.69;69.66;101628.44;4992990;28;20156;-85
2021/08/29 01:10:23;;;;;;;5.22;2.90;;;;;;;15.54;70.21;101631.22;4992601;28;20037;-85
2021/08/29 01:12:57;;;;;;;5.40;2.60;;;;;;;15.54;70.28;101631.22;4992790;28;20030;-84
2021/08/29 01:15:26;;;;;;;5.65;2.67;;;;;;;15.46;70.74;101629.09;4992669;28;20492;-85
2021/08/29 01:17:53;;;;;;;5.60;3.08;;;;;;;15.49;70.72;101629.84;4992641;28;20042;-85
2021/08/29 01:20:21;;;;;;;7.30;3.38;;;;;;;15.41;70.76;101625.91;4985230;28;20033;-85
2021/08/29 01:22:48;;;;;;;4.95;3.10;;;;;;;15.41;71.15;101620.63;4992719;28;20030;-85
2021/08/29 01:25:21;;;;;;;5.28;3.08;;;;;;;15.53;71.15;101618.09;4992124;28;20110;-84
2021/08/29 01:28:04;;;;;;;6.55;3.97;;;;;;;15.47;70.74;101620.19;4992589;28;20026;-85
2021/08/29 01:30:29;;;;;;;4.93;3.35;;;;;;;15.33;71.08;101622.94;4992648;28;20416;-85
2021/08/29 01:32:56;;;;;;;5.38;3.45;;;;;;;15.32;71.45;101620.41;4992622;28;20022;-84
2021/08/29 01:35:22;;;;;;;8.98;3.70;;;;;;;15.31;71.22;101624.00;4992182;28;20030;-85
2021/08/29 01:37:48;;;;;;;5.50;3.85;;;;;;;15.33;71.22;101620.31;4992070;28;20034;-85
2021/08/29 01:40:13;;;;;;;5.32;3.65;;;;;;;15.25;71.43;101609.41;4992276;28;20037;-85
2021/08/29 01:42:40;;;;;;;5.68;3.60;;;;;;;15.21;71.39;101610.56;4992362;28;20489;-85
2021/08/29 01:45:06;;;;;;;6.30;3.55;;;;;;;15.17;71.79;101617.84;4992013;28;20042;-84
2021/08/29 01:47:32;;;;;;;4.70;3.42;;;;;;;15.08;71.05;101618.47;4990932;28;20026;-85
2021/08/29 01:49:59;;;;;;;6.57;3.58;;;;;;;15.04;71.38;101612.53;4992407;28;20532;-87
2021/08/29 01:52:24;;;;;;;6.05;3.63;;;;;;;15.06;71.00;101608.00;4992401;28;20023;-85
2021/08/29 01:54:50;;;;;;;5.18;3.38;;;;;;;15.07;71.88;101611.50;4992551;28;20034;-85
2021/08/29 01:57:15;;;;;;;6.75;4.10;;;;;;;15.05;72.09;101616.06;4992605;28;20038;-85
2021/08/29 01:59:43;;;;;;;7.57;4.35;;;;;;;15.08;71.38;101608.72;4996288;28;20036;-85
2021/08/29 02:02:09;;;;;;;5.32;3.58;;;;;;;15.07;72.19;101609.69;4996086;28;20037;-85
2021/08/29 02:04:35;;;;;;;5.35;3.30;;;;;;;15.06;72.30;101604.50;4995875;28;20026;-85
2021/08/29 02:07:11;;;;;;;4.60;2.75;;;;;;;15.01;71.70;101599.53;4996175;28;20023;-85
2021/08/29 02:09:40;;;;;;;4.75;2.58;;;;;;;14.97;71.69;101606.00;4996173;28;20022;-85
2021/08/29 02:12:09;;;;;;;5.40;2.83;;;;;;;14.93;71.89;101604.50;4995851;28;20034;-85
2021/08/29 02:14:41;;;;;;;7.95;3.13;;;;;;;14.94;72.13;101608.81;4995897;28;20034;-85
2021/08/29 02:17:10;;;;;;;5.80;2.70;;;;;;;14.97;72.26;101605.13;4995606;28;20011;-85
2021/08/29 02:19:37;;;;;;;3.00;2.25;;;;;;;14.93;72.10;101603.63;4995896;28;20030;-85
2021/08/29 02:22:03;;;;;;;5.22;2.17;;;;;;;14.95;72.46;101604.38;4995536;28;20102;-85
2021/08/29 02:24:30;;;;;;;3.50;2.05;;;;;;;14.96;72.10;101603.44;4995712;28;20046;-85
2021/08/29 02:26:57;;;;;;;3.40;2.40;;;;;;;14.94;72.20;101611.47;4995863;28;20049;-85
2021/08/29 02:29:23;;;;;;;6.60;3.05;;;;;;;14.86;72.34;101613.78;4995860;28;20022;-85
2021/08/29 02:31:50;;;;;;;3.38;2.47;;;;;;;14.88;72.71;101606.59;4978074;28;20034;-85
2021/08/29 02:34:15;;;;;;;5.00;2.40;;;;;;;14.80;72.86;101609.75;4995245;28;20113;-85
2021/08/29 02:36:42;;;;;;;4.25;2.78;;;;;;;14.77;72.50;101609.09;4995651;28;20489;-85
2021/08/29 02:39:08;;;;;;;3.65;2.40;;;;;;;14.77;71.86;101614.38;4995617;28;20029;-85
2021/08/29 02:41:35;;;;;;;5.20;2.40;;;;;;;14.77;73.08;101614.38;4995632;28;20112;-85
2021/08/29 02:44:02;;;;;;;4.10;2.45;;;;;;;14.70;72.37;101607.84;4995168;28;20477;-85
2021/08/29 02:46:28;;;;;;;2.95;2.08;;;;;;;14.64;72.60;101609.06;4995258;28;20031;-84
2021/08/29 02:48:53;;;;;;;3.83;2.45;;;;;;;14.63;72.84;101616.16;4994336;28;20081;-85
2021/08/29 02:51:22;;;;;;;3.20;2.42;;;;;;;14.71;72.33;101609.50;4995621;28;20073;-85
2021/08/29 02:53:47;;;;;;;4.38;2.65;;;;;;;14.61;72.63;101610.13;4995015;28;20038;-85
2021/08/29 02:56:15;;;;;;;4.18;2.65;;;;;;;14.58;72.32;101605.03;4994760;28;20089;-85
2021/08/29 02:58:41;;;;;;;6.35;2.83;;;;;;;14.52;72.06;101608.06;4995274;28;20026;-85
2021/08/29 03:01:06;;;;;;;5.05;2.75;;;;;;;14.49;72.20;101602.97;4995251;28;20491;-85
2021/08/29 03:03:31;;;;;;;3.35;2.10;;;;;;;14.44;72.49;101602.44;4995001;28;20045;-84
2021/08/29 03:05:57;;;;;;;6.57;2.45;;;;;;;14.47;72.07;101604.84;4994830;28;20049;-85
2021/08/29 03:08:22;;;;;;;4.53;2.50;;;;;;;14.42;72.07;101605.16;4994959;28;20540;-85
2021/08/29 03:10:48;;;;;;;6.22;2.83;;;;;;;14.39;73.17;101601.88;4994333;28;20354;-85
2021/08/29 03:13:14;;;;;;;7.90;3.00;;;;;;;14.53;72.82;101603.63;4994581;28;20041;-85
2021/08/29 03:15:40;;;;;;;4.25;2.55;;;;;;;14.50;72.21;101596.75;4994936;28;20030;-85
2021/08/29 03:18:06;;;;;;;6.63;3.10;;;;;;;14.53;72.12;101603.63;4995103;28;20105;-84
2021/08/29 03:20:32;;;;;;;4.35;2.83;;;;;;;14.56;71.94;101599.00;4994916;28;20529;-85
2021/08/29 03:22:58;;;;;;;5.20;2.35;;;;;;;14.42;71.41;101599.03;4994599;28;20018;-85
2021/08/29 03:25:23;;;;;;;4.95;2.90;;;;;;;14.44;71.48;101594.50;4994529;28;20523;-84
2021/08/29 03:27:49;;;;;;;3.38;2.42;;;;;;;14.37;71.14;101601.13;4994608;28;20030;-85
2021/08/29 03:30:14;;;;;;;3.35;2.63;;;;;;;14.39;71.22;101599.22;4994583;28;20026;-86
2021/08/29 03:32:44;;;;;;;4.35;2.80;;;;;;;14.28;71.75;101595.50;4994335;28;20493;-85
2021/08/29 03:35:11;;;;;;;4.63;2.97;;;;;;;14.21;71.79;101595.97;4994265;28;20369;-84
2021/08/29 03:37:39;;;;;;;6.32;3.58;;;;;;;14.13;73.01;101593.84;4994706;28;20023;-84
2021/08/29 03:40:05;;;;;;;6.85;4.28;;;;;;;14.01;73.69;101589.34;4994565;28;20022;-85
2021/08/29 03:42:33;;;;;;;4.80;3.90;;;;;;;14.07;73.39;101588.94;4994413;28;20292;-85
2021/08/29 03:45:08;;;;;;;9.38;4.40;;;;;;;14.02;73.61;101581.31;4994234;28;20432;-84
2021/08/29 03:47:37;;;;;;;5.75;4.20;;;;;;;14.15;73.36;101594.56;4994422;28;20018;-86
2021/08/29 03:50:04;;;;;;;5.72;3.58;;;;;;;14.00;73.81;101588.50;4994352;28;20037;-86
2021/08/29 03:52:32;;;;;;;6.65;4.07;;;;;;;13.93;74.48;101587.19;4994201;28;20040;-86
2021/08/29 03:54:58;;;;;;;6.10;3.72;;;;;;;13.89;73.83;101578.59;4976555;28;20097;-86
2021/08/29 03:57:24;;;;;;;4.50;3.30;;;;;;;13.85;74.20;101579.75;4993912;28;20030;-84
2021/08/29 03:59:49;;;;;;;7.47;3.55;;;;;;;13.83;74.36;101576.34;4994053;28;20031;-85
2021/08/29 04:02:15;;;;;;;6.25;3.78;;;;;;;13.82;74.40;101577.31;4994058;28;20073;-85
2021/08/29 04:04:40;;;;;;;6.35;3.70;;;;;;;13.84;74.12;101575.41;4993733;28;20038;-85
2021/08/29 04:07:06;;;;;;;7.93;3.90;;;;;;;13.78;73.46;101570.50;4994063;28;20063;-87
2021/08/29 04:09:33;;;;;;;6.32;3.80;;;;;;;13.73;74.45;101569.97;4992986;28;20065;-85
2021/08/29 04:12:02;;;;;;;4.60;3.45;;;;;;;13.77;73.62;101574.09;4992530;28;20488;-85
2021/08/29 04:14:29;;;;;;;4.80;3.42;;;;;;;13.68;73.66;101572.03;4993479;28;20034;-84
2021/08/29 04:16:58;;;;;;;5.47;3.55;;;;;;;13.72;73.71;101576.16;4994084;28;20102;-84
2021/08/29 04:19:26;;;;;;;8.80;3.92;;;;;;;13.67;74.08;101571.19;4994141;28;20031;-84
2021/08/29 04:21:53;;;;;;;8.07;4.70;;;;;;;13.61;74.25;101570.72;4993829;28;20026;-85
2021/08/29 04:24:19;;;;;;;7.43;4.50;;;;;;;13.59;75.01;101578.75;5008489;28;20034;-85
2021/08/29 04:26:45;;;;;;;7.15;4.80;;;;;;;13.57;74.61;101577.16;5013311;28;20033;-85
2021/08/29 04:29:10;;;;;;;9.00;5.70;;;;;;;13.57;74.66;101571.88;5013266;28;20033;-85
2021/08/29 04:31:36;;;;;;;8.45;5.53;;;;;;;13.59;74.86;101567.34;5005728;28;20485;-84
2021/08/29 04:34:07;;;;;;;7.35;5.07;;;;;;;13.76;74.66;101568.91;4993728;28;20026;-85
2021/08/29 04:36:35;;;;;;;9.87;6.00;;;;;;;13.67;74.42;101567.72;4993617;28;20481;-85
2021/08/29 04:39:03;;;;;;;7.72;5.30;;;;;;;13.65;74.57;101569.59;4993699;28;20695;-85
2021/08/29 04:41:29;;;;;;;13.80;5.70;;;;;;;13.59;74.98;101562.06;4993212;28;20030;-85
2021/08/29 04:43:54;;;;;;;7.07;5.25;;;;;;;13.57;74.33;101564.78;4993588;28;20035;-84
2021/08/29 04:46:20;;;;;;;9.85;5.40;;;;;;;13.55;75.12;101569.31;4993390;28;20038;-85
2021/08/29 04:48:45;;;;;;;9.07;5.25;;;;;;;13.53;76.06;101573.00;4975925;28;20117;-84
2021/08/29 04:51:10;;;;;;;6.57;5.00;;;;;;;13.49;75.99;101575.81;4993310;28;20511;-85
2021/08/29 04:53:36;;;;;;;7.43;5.75;;;;;;;13.52;76.07;101576.56;4993604;28;20030;-85
2021/08/29 04:56:01;;;;;;;10.40;5.90;;;;;;;13.53;75.04;101573.84;4993113;28;20026;-85
2021/08/29 04:58:26;;;;;;;8.45;5.43;;;;;;;13.48;75.90;101571.47;4993357;28;20022;-85
2021/08/29 05:00:52;;;;;;;8.02;5.80;;;;;;;13.50;75.72;101579.28;4993083;28;20037;-85
2021/08/29 05:03:17;;;;;;;9.05;6.13;;;;;;;13.47;75.55;101569.78;4993368;28;20026;-85
2021/08/29 05:05:43;;;;;;;10.98;6.78;;;;;;;13.41;76.35;101580.72;4992905;28;20034;-85
2021/08/29 05:08:08;;;;;;;7.82;5.40;;;;;;;13.39;77.56;101582.59;4992994;28;20476;-85
2021/08/29 05:10:33;;;;;;;8.93;6.00;;;;;;;13.43;76.93;101575.34;4992757;28;20034;-84
2021/08/29 05:12:59;;;;;;;9.77;6.80;;;;;;;13.45;77.08;101574.31;4992974;28;20489;-84
2021/08/29 05:15:24;;;;;;;12.48;6.45;;;;;;;13.45;77.20;101566.41;4992774;28;20034;-86
2021/08/29 05:17:50;;;;;;;9.18;5.72;;;;;;;13.44;76.50;101564.69;4992685;28;20023;-86
2021/08/29 05:20:15;;;;;;;9.00;5.95;;;;;;;13.37;75.87;101568.66;4992763;28;20030;-85
2021/08/29 05:22:40;;;;;;;8.25;5.25;;;;;;;13.40;76.52;101571.09;4992158;28;20037;-84
2021/08/29 05:25:06;;;;;;;10.77;5.85;;;;;;;13.41;76.74;101572.81;4992834;28;20037;-86
2021/08/29 05:27:32;;;;;;;8.68;5.82;;;;;;;13.37;76.04;101575.72;4992638;28;20101;-84
2021/08/29 05:29:57;;;;;;;7.65;5.63;;;;;;;13.40;75.82;101572.91;4992338;28;20018;-85
2021/08/29 05:32:22;;;;;;;10.32;6.00;;;;;;;13.33;75.71;101577.72;4990868;28;20027;-85
2021/08/29 05:34:48;;;;;;;9.63;6.35;;;;;;;13.27;76.33;101578.06;4992652;28;20036;-87
2021/08/29 05:37:13;;;;;;;9.85;6.90;;;;;;;13.28;76.39;101579.72;4992547;28;20045;-85
2021/08/29 05:39:38;;;;;;;8.93;6.20;;;;;;;13.31;77.14;101574.31;4992429;28;20026;-85
2021/08/29 05:42:04;;;;;;;11.75;6.20;;;;;;;13.33;76.01;101574.19;4992572;28;20025;-86
2021/08/29 05:44:29;;;;;;;10.15;5.70;;;;;;;13.34;75.90;101573.28;4992235;28;20165;-85
2021/08/29 05:46:55;;;;;;;8.55;6.07;;;;;;;13.28;76.27;101577.94;4992279;28;20037;-85
2021/08/29 05:49:20;;;;;;;9.88;6.22;;;;;;;13.31;75.85;101574.31;4992855;28;20030;-85
2021/08/29 05:51:45;;;;;;;7.03;5.45;;;;;;;13.33;76.72;101572.44;4992078;28;20034;-86
2021/08/29 05:54:11;;;;;;;10.02;5.88;;;;;;;13.34;75.80;101579.38;4992416;28;20109;-85
2021/08/29 05:56:36;;;;;;;6.88;5.40;;;;;;;13.35;75.49;101577.59;4992494;28;20027;-85
2021/08/29 05:59:02;;;;;;;8.00;4.95;;;;;;;13.41;75.12;101574.59;4992400;28;20106;-85
2021/08/29 06:01:27;;;;;;;6.57;4.70;;;;;;;13.37;74.27;101576.56;4992178;28;20392;-86
2021/08/29 06:03:52;;;;;;;7.35;4.95;;;;;;;13.46;74.51;101578.63;4992408;28;20033;-86
2021/08/29 06:06:18;;;;;;;11.77;5.68;;;;;;;13.45;75.24;101574.31;4992195;28;20065;-85
2021/08/29 06:08:43;;;;;;;10.05;5.85;;;;;;;13.51;74.89;101577.50;4992282;28;20027;-85
2021/08/29 06:11:09;;;;;;;8.85;5.38;;;;;;;13.47;74.42;101579.50;4991904;28;20121;-84
2021/08/29 06:13:34;;;;;;;10.35;5.78;;;;;;;13.53;75.51;101568.56;4992552;28;20035;-85
2021/08/29 06:16:00;;;;;;;8.68;5.78;;;;;;;13.51;75.03;101574.84;4992081;28;20497;-85
2021/08/29 06:18:25;;;;;;;9.82;5.57;;;;;;;13.54;75.45;101577.31;4992263;28;20034;-85
2021/08/29 06:20:51;;;;;;;11.45;6.90;;;;;;;13.59;75.30;101580.53;4991876;28;20038;-87
2021/08/29 06:23:16;;;;;;;11.68;6.53;;;;;;;13.70;75.37;101575.41;4991596;28;20030;-85
2021/08/29 06:25:42;;;;;;;10.63;6.53;;;;;;;13.77;76.15;101575.91;4991817;28;20129;-86
2021/08/29 06:28:07;;;;;;;12.40;8.18;;;;;;;13.85;76.71;101569.19;4992133;28;20023;-85
2021/08/29 06:30:32;;;;;;;10.43;7.75;;;;;;;13.94;76.73;101577.47;4991867;28;20072;-85
2021/08/29 06:32:58;;;;;;;13.18;7.25;;;;;;;14.04;76.00;101571.50;4974590;28;20042;-86
2021/08/29 06:35:23;;;;;;;10.07;6.55;;;;;;;14.03;76.43;101566.31;4992041;28;20472;-85
2021/08/29 06:37:49;;;;;;;10.27;6.55;;;;;;;14.18;76.25;101569.75;4992090;28;20112;-85
2021/08/29 06:40:14;;;;;;;12.68;7.65;;;;;;;14.31;76.04;101569.81;4991648;28;20023;-86
2021/08/29 06:42:41;;;;;;;12.85;8.07;;;;;;;14.40;77.23;101574.50;4991980;28;20030;-86
2021/08/29 06:45:08;;;;;;;14.65;8.50;;;;;;;14.57;78.78;101571.63;4993965;28;20396;-86
2021/08/29 06:47:33;;;;;;;28.02;14.55;;;;;;;14.80;85.47;101574.53;4995731;28;20031;-86
2021/08/29 06:49:59;;;;;;;30.23;13.73;;;;;;;15.44;85.19;101572.78;4995278;28;20034;-86
2021/08/29 06:52:24;;;;;;;44.03;19.13;;;;;;;16.35;83.83;101565.44;4995422;28;20027;-86
2021/08/29 06:54:49;;;;;;;32.85;16.23;;;;;;;17.52;79.47;101561.88;4995353;28;20054;-86
2021/08/29 06:57:15;;;;;;;29.88;17.30;;;;;;;18.50;74.95;101567.22;4995330;28;20018;-86
2021/08/29 06:59:40;;;;;;;35.35;16.40;;;;;;;19.36;70.61;101570.63;4995055;28;20053;-87
2021/08/29 07:02:05;;;;;;;29.38;14.90;;;;;;;19.94;65.36;101569.16;4996535;28;20025;-83
2021/08/29 07:04:31;;;;;;;29.33;15.00;;;;;;;20.26;63.15;101568.06;4995112;28;20050;-85
2021/08/29 07:06:56;;;;;;;22.33;13.85;;;;;;;20.89;59.99;101564.97;4995163;28;20034;-88
2021/08/29 07:09:21;;;;;;;23.52;13.05;;;;;;;21.58;59.27;101567.34;4995282;28;20037;-86
2021/08/29 07:11:47;;;;;;;22.30;13.23;;;;;;;21.83;57.20;101566.78;4994707;28;20022;-85
2021/08/29 07:14:12;;;;;;;19.08;11.80;;;;;;;22.04;57.37;101564.69;4995072;28;20065;-87
2021/08/29 07:16:38;;;;;;;20.90;13.82;;;;;;;21.80;56.44;101570.59;4995133;28;20503;-86
2021/08/29 07:19:03;;;;;;;20.02;13.40;;;;;;;21.29;58.31;101569.25;4994794;28;20568;-86
2021/08/29 07:21:28;;;;;;;23.88;13.80;;;;;;;21.15;58.57;101565.22;4994948;28;20032;-87
2021/08/29 07:23:54;;;;;;;27.55;15.10;;;;;;;20.90;58.98;101567.50;4995192;28;20023;-86
2021/08/29 07:26:19;;;;;;;22.48;13.52;;;;;;;21.29;58.51;101564.75;4994774;28;20042;-86
2021/08/29 07:28:45;;;;;;;24.02;14.43;;;;;;;21.15;58.16;101574.06;4997453;28;20057;-86
2021/08/29 07:31:11;;;;;;;24.65;13.93;;;;;;;21.29;57.95;101563.91;5014503;28;20113;-87
2021/08/29 07:33:36;;;;;;;22.75;13.68;;;;;;;20.73;59.25;101562.91;5014369;28;20392;-87
2021/08/29 07:36:02;;;;;;;23.50;14.40;;;;;;;20.63;59.85;101556.75;5014420;28;20025;-86
2021/08/29 07:38:28;;;;;;;20.05;11.98;;;;;;;20.59;60.20;101574.84;4996136;28;20038;-86
2021/08/29 07:40:53;;;;;;;21.67;13.60;;;;;;;20.41;60.12;101572.00;4999901;28;20074;-86
2021/08/29 07:43:18;;;;;;;25.42;13.70;;;;;;;20.25;61.32;101569.06;5006698;28;20072;-86
2021/08/29 07:45:44;;;;;;;25.50;15.20;;;;;;;19.74;62.77;101574.44;5005243;28;20519;-86
2021/08/29 07:48:09;;;;;;;23.52;13.98;;;;;;;20.62;61.78;101584.41;4994435;28;20030;-86
2021/08/29 07:50:34;;;;;;;18.95;13.75;;;;;;;21.30;59.10;101574.44;4991425;28;20100;-87
2021/08/29 07:53:00;;;;;;;26.00;15.13;;;;;;;20.14;62.32;101581.56;4976869;28;20042;-87
2021/08/29 07:55:25;;;;;;;21.08;13.55;;;;;;;21.20;59.78;101574.47;5001655;28;20036;-87
2021/08/29 07:57:51;;;;;;;22.30;13.93;;;;;;;21.50;59.51;101580.56;5001523;28;20113;-87
2021/08/29 08:00:17;;;;;;;23.30;14.70;;;;;;;21.61;58.77;101576.03;5012061;28;20036;-87
2021/08/29 08:02:42;;;;;;;23.83;15.48;;;;;;;21.02;59.80;101578.03;5002533;28;20031;-87
2021/08/29 08:05:08;;;;;;;23.05;15.00;;;;;;;20.97;60.13;101584.66;5008143;28;20026;-87
2021/08/29 08:07:33;;;;;;;28.88;15.43;;;;;;;20.96;60.27;101580.28;4997621;28;20026;-87
2021/08/29 08:09:59;;;;;;;23.90;14.93;;;;;;;21.23;59.58;101581.34;4993271;28;20030;-87
2021/08/29 08:12:24;;;;;;;26.83;15.93;;;;;;;20.99;60.76;101582.69;4993523;28;20385;-87
2021/08/29 08:14:49;;;;;;;25.88;15.50;;;;;;;21.22;59.28;101578.81;4993488;28;20030;-87
2021/08/29 08:17:15;;;;;;;33.38;15.07;;;;;;;21.25;59.23;101583.88;4993793;28;20026;-87
2021/08/29 08:19:40;;;;;;;27.55;15.98;;;;;;;21.24;59.23;101587.53;4993544;28;20031;-87
2021/08/29 08:22:05;;;;;;;26.02;15.00;;;;;;;21.06;60.31;101587.44;4993576;28;20479;-87
2021/08/29 08:24:31;;;;;;;23.63;13.73;;;;;;;21.09;60.00;101579.13;4991738;28;20022;-86
2021/08/29 08:26:56;;;;;;;29.20;15.35;;;;;;;20.87;60.40;101582.97;5005120;28;20216;-86
2021/08/29 08:29:21;;;;;;;24.50;14.30;;;;;;;21.37;59.75;101583.56;4995088;28;20022;-85
2021/08/29 08:31:47;;;;;;;26.63;15.25;;;;;;;21.36;60.06;101586.38;5013031;28;20105;-87
2021/08/29 08:34:12;;;;;;;28.05;15.18;;;;;;;21.17;59.97;101579.28;5003993;28;20501;-87
2021/08/29 08:36:37;;;;;;;22.20;14.15;;;;;;;21.05;60.67;101586.59;5003843;28;20389;-86
2021/08/29 08:39:03;;;;;;;23.63;14.70;;;;;;;21.08;60.61;101586.31;4992968;28;20049;-87
2021/08/29 08:41:28;;;;;;;24.38;14.88;;;;;;;20.87;61.36;101586.47;4991550;28;20038;-87
2021/08/29 08:43:54;;;;;;;30.02;16.33;;;;;;;20.65;61.94;101584.13;5008757;28;20036;-86
2021/08/29 08:46:20;;;;;;;24.73;14.20;;;;;;;20.78;61.54;101582.84;5011380;28;20083;-87
2021/08/29 08:48:48;;;;;;;28.95;16.95;;;;;;;20.77;62.55;101582.97;5001420;28;20112;-86
2021/08/29 08:51:19;;;;;;;26.50;15.88;;;;;;;21.20;61.25;101578.97;4992846;28;20022;-86
2021/08/29 08:53:45;;;;;;;27.02;14.43;;;;;;;21.10;61.58;101579.00;5007311;28;20026;-86
2021/08/29 08:56:11;;;;;;;25.70;15.20;;;;;;;21.10;61.32;101578.16;5005159;28;20452;-86
2021/08/29 08:58:40;;;;;;;25.35;14.68;;;;;;;21.25;61.08;101582.06;4993013;28;20030;-86
2021/08/29 09:01:07;;;;;;;29.20;14.93;;;;;;;21.59;59.91;101579.69;4992961;28;20026;-86
2021/08/29 09:03:34;;;;;;;28.38;13.88;;;;;;;21.90;59.51;101575.88;4993040;28;20328;-86
2021/08/29 09:06:01;;;;;;;26.10;14.70;;;;;;;22.43;57.97;101575.09;4997693;28;20531;-86
2021/08/29 09:08:26;;;;;;;29.55;16.05;;;;;;;23.04;56.12;101570.75;5005762;28;20038;-86
2021/08/29 09:10:52;;;;;;;27.67;14.18;;;;;;;23.06;56.53;101570.59;4992030;28;20033;-85
2021/08/29 09:13:17;;;;;;;26.50;15.50;;;;;;;22.68;56.44;101570.78;4991879;28;20034;-86
2021/08/29 09:15:42;;;;;;;26.80;14.77;;;;;;;22.71;56.65;101580.34;4990959;28;20109;-87
2021/08/29 09:18:11;;;;;;;24.92;14.35;;;;;;;22.69;56.33;101569.81;4992371;28;20026;-87
2021/08/29 09:20:38;;;;;;;31.63;18.33;;;;;;;21.84;58.50;101576.47;4992383;28;20106;-87
2021/08/29 09:23:11;;;;;;;27.02;15.75;;;;;;;22.09;57.84;101575.75;4999963;28;20028;-87
2021/08/29 09:25:43;;;;;;;24.63;15.57;;;;;;;22.36;57.20;101574.88;4980803;28;20041;-87
2021/08/29 09:28:13;;;;;;;30.25;16.85;;;;;;;22.28;57.61;101584.69;4995151;28;20101;-87
2021/08/29 09:30:47;;;;;;;29.90;17.65;;;;;;;21.68;59.13;101577.13;4992379;28;20026;-87
2021/08/29 09:33:13;;;;;;;28.20;17.02;;;;;;;21.31;60.05;101584.13;4992465;28;20026;-87
2021/08/29 09:35:39;;;;;;;26.15;16.58;;;;;;;21.71;58.74;101571.47;4974613;28;20383;-86
2021/08/29 09:38:16;;;;;;;27.38;16.52;;;;;;;20.98;60.43;101575.66;4991285;28;20027;-87
2021/08/29 09:40:42;;;;;;;33.60;17.80;;;;;;;21.05;60.36;101575.06;4993605;28;20034;-88
2021/08/29 09:43:08;;;;;;;28.48;16.88;;;;;;;21.21;60.06;101572.66;4990792;28;20037;-87
2021/08/29 09:45:37;;;;;;;30.67;16.15;;;;;;;20.96;60.72;101569.59;4990010;28;20027;-87
2021/08/29 09:48:06;;;;;;;23.02;15.50;;;;;;;21.18;60.10;101570.25;4990791;28;20065;-87
2021/08/29 09:50:34;;;;;;;29.42;15.32;;;;;;;21.67;59.77;101564.75;4990309;28;20385;-86
2021/08/29 09:53:02;;;;;;;23.45;13.88;;;;;;;22.29;56.87;101572.97;4990485;28;20046;-87
2021/08/29 09:55:36;;;;;;;29.25;13.70;;;;;;;22.39;56.93;101565.69;4990620;28;20034;-87
2021/08/29 09:58:25;;;;;;;22.15;12.82;;;;;;;22.60;56.20;101573.41;4989640;28;20044;-87
2021/08/29 10:01:14;;;;;;;23.05;12.45;;;;;;;22.40;55.89;101571.91;4989963;28;20019;-87
2021/08/29 10:03:42;;;;;;;15.60;10.27;;;;;;;22.50;56.15;101581.53;4990911;28;20022;-87
2021/08/29 10:06:30;;;;;;;16.70;10.48;;;;;;;23.06;53.82;101575.94;4991194;28;20030;-86
2021/08/29 10:09:02;;;;;;;18.80;10.70;;;;;;;23.32;53.70;101575.91;4988486;28;20084;-87
2021/08/29 10:11:29;;;;;;;17.55;11.13;;;;;;;23.22;53.27;101572.53;4983526;28;20037;-87
2021/08/29 10:13:56;;;;;;;16.00;10.70;;;;;;;23.19;51.77;101573.69;5003909;28;20065;-86
2021/08/29 10:16:23;;;;;;;20.13;10.95;;;;;;;24.16;49.75;101566.19;5006729;28;20025;-86
2021/08/29 10:18:53;;;;;;;16.80;10.38;;;;;;;25.31;47.94;101569.69;4994681;28;20053;-87
2021/08/29 10:21:22;;;;;;;13.68;8.52;;;;;;;25.42;45.29;101568.47;4989326;28;20046;-86
2021/08/29 10:23:52;;;;;;;22.35;9.68;;;;;;;24.97;46.36;101567.22;5000025;28;20030;-87
2021/08/29 10:26:21;;;;;;;14.82;9.75;;;;;;;24.57;46.93;101574.31;4999914;28;20110;-87
2021/08/29 10:29:03;;;;;;;15.13;9.38;;;;;;;24.65;47.44;101576.16;4992071;28;20037;-87
2021/08/29 10:31:35;;;;;;;15.57;8.88;;;;;;;24.03;48.50;101582.78;4997072;28;20384;-85
2021/08/29 10:34:03;;;;;;;14.60;8.63;;;;;;;24.44;47.59;101574.78;4988763;28;20033;-86
2021/08/29 10:36:28;;;;;;;15.43;7.97;;;;;;;25.97;46.65;101566.75;5003996;28;20034;-87
2021/08/29 10:38:54;;;;;;;15.00;7.47;;;;;;;26.01;44.09;101559.16;4999590;28;20495;-87
2021/08/29 10:41:21;;;;;;;14.20;8.60;;;;;;;25.48;43.87;101562.41;4996761;28;20038;-87
2021/08/29 10:43:51;;;;;;;15.00;7.90;;;;;;;25.21;45.99;101563.63;5008490;28;20117;-86
2021/08/29 10:46:17;;;;;;;15.15;8.30;;;;;;;24.50;46.77;101566.09;4996201;28;20042;-86
2021/08/29 10:48:45;;;;;;;14.77;8.52;;;;;;;24.22;47.91;101553.97;4995227;28;20034;-86
2021/08/29 10:51:13;;;;;;;12.40;8.15;;;;;;;24.19;48.82;101552.47;5006161;28;20025;-86
2021/08/29 10:53:49;;;;;;;12.05;7.80;;;;;;;25.89;46.30;101543.38;5013753;28;20172;-87
2021/08/29 10:56:14;;;;;;;12.52;7.20;;;;;;;26.75;44.66;101550.50;4981044;28;20033;-83
2021/08/29 10:58:43;;;;;;;11.45;7.25;;;;;;;25.83;43.70;101556.69;5009680;28;20026;-82
2021/08/29 11:01:43;;;;;;;19.88;8.40;;;;;;;26.03;42.96;101549.88;5008671;28;20022;-83
2021/08/29 11:04:17;;;;;;;40.67;18.67;;;;;;;25.90;43.19;101554.97;4995128;28;20034;-84
2021/08/29 11:06:54;;;;;;;15.50;7.57;;;;;;;25.80;42.57;101551.66;5006586;28;20106;-83
2021/08/29 11:09:32;;;;;;;13.35;7.78;;;;;;;26.63;42.94;101552.81;4996456;28;20388;-85
2021/08/29 11:12:18;;;;;;;11.07;6.60;;;;;;;26.43;42.06;101553.28;4995733;28;20039;-93
2021/08/29 11:14:49;;;;;;;9.80;5.88;;;;;;;26.43;42.16;101553.28;5010108;28;20057;-87
2021/08/29 11:17:22;;;;;;;13.30;6.10;;;;;;;25.67;42.77;101553.09;5006322;28;20438;-86
2021/08/29 11:20:03;;;;;;;7.82;5.40;;;;;;;25.42;43.13;101551.53;5001823;28;20046;-86